createdAt,value
2018-07-22T00:00:14.828Z,9.70
2018-07-22T00:02:43.512Z,13.50
2018-07-22T00:05:12.181Z,12.30
2018-07-22T00:07:40.868Z,11.90
2018-07-22T00:10:20.600Z,12.60
2018-07-22T00:12:49.321Z,15.53
2018-07-22T00:15:18.005Z,11.70
2018-07-22T00:17:46.667Z,16.30
2018-07-22T00:20:15.418Z,13.60
2018-07-22T00:22:44.207Z,21.63
2018-07-22T00:25:12.847Z,10.37
2018-07-22T00:27:41.510Z,10.67
2018-07-22T00:30:10.383Z,10.83
2018-07-22T00:32:40.305Z,11.30
2018-07-22T00:35:09.327Z,15.10
2018-07-22T00:37:38.441Z,11.03
2018-07-22T00:40:07.916Z,11.43
2018-07-22T00:42:36.847Z,18.43
2018-07-22T00:45:06.245Z,14.50
2018-07-22T00:47:34.937Z,13.80
2018-07-22T00:50:03.823Z,12.27
2018-07-22T00:52:32.496Z,12.97
2018-07-22T00:55:01.176Z,11.53
2018-07-22T00:57:29.872Z,10.13
2018-07-22T00:59:58.595Z,15.13
2018-07-22T01:02:27.320Z,10.10
2018-07-22T01:04:55.992Z,11.30
2018-07-22T01:07:24.727Z,11.10
2018-07-22T01:09:53.440Z,10.50
2018-07-22T01:12:22.372Z,10.70
2018-07-22T01:14:51.022Z,9.73
2018-07-22T01:17:19.743Z,13.23
2018-07-22T01:19:48.398Z,9.40
2018-07-22T01:22:17.258Z,11.80
2018-07-22T01:24:45.960Z,10.80
2018-07-22T01:27:14.689Z,12.70
2018-07-22T01:29:43.356Z,11.77
2018-07-22T01:32:12.031Z,11.43
2018-07-22T01:34:40.673Z,10.77
2018-07-22T01:37:09.355Z,11.30
2018-07-22T01:39:37.995Z,11.53
2018-07-22T01:42:06.689Z,11.77
2018-07-22T01:44:35.418Z,12.73
2018-07-22T01:47:04.108Z,12.43
2018-07-22T01:49:32.767Z,13.73
2018-07-22T01:52:01.409Z,12.00
2018-07-22T01:54:30.073Z,11.80
2018-07-22T01:56:58.725Z,11.80
2018-07-22T01:59:27.401Z,10.43
2018-07-22T02:01:56.078Z,14.17
2018-07-22T02:04:24.939Z,11.00
2018-07-22T02:06:53.600Z,10.70
2018-07-22T02:09:22.270Z,11.97
2018-07-22T02:11:50.932Z,11.97
2018-07-22T02:14:19.598Z,13.53
2018-07-22T02:16:48.240Z,10.97
2018-07-22T02:19:16.912Z,13.77
2018-07-22T02:21:45.556Z,9.60
2018-07-22T02:24:14.247Z,13.13
2018-07-22T02:26:42.891Z,11.80
2018-07-22T02:29:11.672Z,14.13
2018-07-22T02:31:40.353Z,17.10
2018-07-22T02:34:09.056Z,17.20
2018-07-22T02:36:37.732Z,13.90
2018-07-22T02:39:09.020Z,13.23
2018-07-22T02:41:37.696Z,15.37
2018-07-22T02:44:06.452Z,19.10
2018-07-22T02:46:35.182Z,11.17
2018-07-22T02:49:03.849Z,18.53
2018-07-22T02:51:32.506Z,10.60
2018-07-22T02:54:01.253Z,14.20
2018-07-22T02:56:29.909Z,10.77
2018-07-22T02:58:58.647Z,15.07
2018-07-22T03:01:27.308Z,10.63
2018-07-22T03:03:55.997Z,12.00
2018-07-22T03:06:24.635Z,11.73
2018-07-22T03:08:53.308Z,10.00
2018-07-22T03:11:21.956Z,12.70
2018-07-22T03:13:50.628Z,12.90
2018-07-22T03:16:19.319Z,16.57
2018-07-22T03:18:47.989Z,11.63
2018-07-22T03:21:16.638Z,15.23
2018-07-22T03:23:45.310Z,9.77
2018-07-22T03:26:13.963Z,10.50
2018-07-22T03:28:42.627Z,11.40
2018-07-22T03:31:11.321Z,13.23
2018-07-22T03:33:39.994Z,14.70
2018-07-22T03:36:08.640Z,12.23
2018-07-22T03:38:37.295Z,11.63
2018-07-22T03:41:06.035Z,15.13
2018-07-22T03:43:34.707Z,10.07
2018-07-22T03:46:03.381Z,11.73
2018-07-22T03:48:32.079Z,11.70
2018-07-22T03:51:00.731Z,10.50
2018-07-22T03:53:29.407Z,11.90
2018-07-22T03:55:58.244Z,10.90
2018-07-22T03:58:26.921Z,11.63
2018-07-22T04:00:55.572Z,12.53
2018-07-22T04:03:24.248Z,10.33
2018-07-22T04:05:52.916Z,9.50
2018-07-22T04:08:21.573Z,11.93
2018-07-22T04:10:50.240Z,11.47
2018-07-22T04:13:18.899Z,12.53
2018-07-22T04:15:47.567Z,10.43
2018-07-22T04:18:16.218Z,11.17
2018-07-22T04:20:44.904Z,13.00
2018-07-22T04:23:13.556Z,11.17
2018-07-22T04:25:42.214Z,12.10
2018-07-22T04:28:10.853Z,12.17
2018-07-22T04:30:39.532Z,11.63
2018-07-22T04:33:08.193Z,10.50
2018-07-22T04:35:36.860Z,10.00
2018-07-22T04:38:06.034Z,9.67
2018-07-22T04:40:34.701Z,14.80
2018-07-22T04:43:03.376Z,13.23
2018-07-22T04:45:32.090Z,12.63
2018-07-22T04:48:00.744Z,10.67
2018-07-22T04:50:29.404Z,19.47
2018-07-22T04:52:58.068Z,10.03
2018-07-22T04:55:26.769Z,10.03
2018-07-22T04:57:55.432Z,10.53
2018-07-22T05:00:24.132Z,9.30
2018-07-22T05:02:52.803Z,10.33
2018-07-22T05:05:21.509Z,14.57
2018-07-22T05:07:50.148Z,9.80
2018-07-22T05:10:18.844Z,14.20
2018-07-22T05:12:47.486Z,14.90
2018-07-22T05:15:16.142Z,12.43
2018-07-22T05:17:44.801Z,10.40
2018-07-22T05:20:13.483Z,12.90
2018-07-22T05:22:42.139Z,11.27
2018-07-22T05:25:10.804Z,13.27
2018-07-22T05:27:39.444Z,14.10
2018-07-22T05:30:08.101Z,10.77
2018-07-22T05:32:36.757Z,11.17
2018-07-22T05:35:05.474Z,12.70
2018-07-22T05:37:34.150Z,11.10
2018-07-22T05:40:02.851Z,13.43
2018-07-22T05:42:31.504Z,15.57
2018-07-22T05:45:00.211Z,11.73
2018-07-22T05:47:28.869Z,13.93
2018-07-22T05:49:57.532Z,13.30
2018-07-22T05:52:26.184Z,10.70
2018-07-22T05:54:54.911Z,11.40
2018-07-22T05:57:23.578Z,17.60
2018-07-22T05:59:52.215Z,11.20
2018-07-22T06:02:20.913Z,11.50
2018-07-22T06:04:49.817Z,15.20
2018-07-22T06:07:18.496Z,11.00
2018-07-22T06:09:47.174Z,12.27
2018-07-22T06:12:15.857Z,13.00
2018-07-22T06:14:44.521Z,13.67
2018-07-22T06:17:13.220Z,12.53
2018-07-22T06:19:41.893Z,12.60
2018-07-22T06:22:10.568Z,14.50
2018-07-22T06:24:39.245Z,14.10
2018-07-22T06:27:08.116Z,13.00
2018-07-22T06:29:36.762Z,11.40
2018-07-22T06:32:05.635Z,24.87
2018-07-22T06:34:34.323Z,11.83
2018-07-22T06:37:03.151Z,14.30
2018-07-22T06:39:31.792Z,13.50
2018-07-22T06:42:00.464Z,12.23
2018-07-22T06:44:29.121Z,12.87
2018-07-22T06:46:57.778Z,11.90
2018-07-22T06:49:26.427Z,12.03
2018-07-22T06:51:55.101Z,11.80
2018-07-22T06:54:23.773Z,14.33
2018-07-22T06:56:52.451Z,12.87
2018-07-22T06:59:21.153Z,14.20
2018-07-22T07:01:49.826Z,12.93
2018-07-22T07:04:18.511Z,13.87
2018-07-22T07:06:47.186Z,13.53
2018-07-22T07:09:15.832Z,11.70
2018-07-22T07:11:44.510Z,12.60
2018-07-22T07:14:13.165Z,18.03
2018-07-22T07:16:41.832Z,13.97
2018-07-22T07:19:10.483Z,13.80
2018-07-22T07:21:39.169Z,13.33
2018-07-22T07:24:07.919Z,11.97
2018-07-22T07:26:36.613Z,11.60
2018-07-22T07:29:05.380Z,13.33
2018-07-22T07:31:34.048Z,17.87
2018-07-22T07:34:02.723Z,12.10
2018-07-22T07:36:31.418Z,12.40
2018-07-22T07:39:00.063Z,12.43
2018-07-22T07:41:28.744Z,12.97
2018-07-22T07:43:57.387Z,12.50
2018-07-22T07:46:26.045Z,12.40
2018-07-22T07:48:54.689Z,12.93
2018-07-22T07:51:23.358Z,12.60
2018-07-22T07:53:52.114Z,12.63
2018-07-22T07:56:20.773Z,11.77
2018-07-22T07:58:49.409Z,12.40
2018-07-22T08:01:18.152Z,12.90
2018-07-22T08:03:46.822Z,12.63
2018-07-22T08:06:15.491Z,11.60
2018-07-22T08:08:44.138Z,11.80
2018-07-22T08:11:12.783Z,14.20
2018-07-22T08:13:41.465Z,12.90
2018-07-22T08:16:10.108Z,12.77
2018-07-22T08:18:38.840Z,13.00
2018-07-22T08:21:07.513Z,12.97
2018-07-22T08:23:36.208Z,14.30
2018-07-22T08:26:05.019Z,13.33
2018-07-22T08:28:44.636Z,13.10
2018-07-22T08:31:13.290Z,12.97
2018-07-22T08:33:41.972Z,19.30
2018-07-22T08:36:10.608Z,13.20
2018-07-22T08:38:39.287Z,12.57
2018-07-22T08:41:07.983Z,13.87
2018-07-22T08:43:36.655Z,14.70
2018-07-22T08:46:05.332Z,16.10
2018-07-22T08:48:34.011Z,25.40
2018-07-22T08:51:02.677Z,16.73
2018-07-22T08:53:31.375Z,17.93
2018-07-22T08:56:00.023Z,14.20
2018-07-22T08:58:28.743Z,13.90
2018-07-22T09:00:57.386Z,14.10
2018-07-22T09:03:26.076Z,14.47
2018-07-22T09:05:54.744Z,14.67
2018-07-22T09:08:23.411Z,13.20
2018-07-22T09:10:52.055Z,13.63
2018-07-22T09:13:20.712Z,14.23
2018-07-22T09:15:49.361Z,13.60
2018-07-22T09:18:18.017Z,14.37
2018-07-22T09:20:46.684Z,13.73
2018-07-22T09:23:15.344Z,15.30
2018-07-22T09:25:43.997Z,13.60
2018-07-22T09:28:12.673Z,14.03
2018-07-22T09:30:41.317Z,13.70
2018-07-22T09:33:09.989Z,14.53
2018-07-22T09:35:38.640Z,14.47
2018-07-22T09:38:07.308Z,15.07
2018-07-22T09:40:35.954Z,13.37
2018-07-22T09:43:04.663Z,12.97
2018-07-22T09:45:33.295Z,15.27
2018-07-22T09:48:01.994Z,14.17
2018-07-22T09:50:30.658Z,13.90
2018-07-22T09:52:59.364Z,17.33
2018-07-22T09:55:28.035Z,12.60
2018-07-22T09:57:56.712Z,14.10
2018-07-22T10:00:30.647Z,13.40
2018-07-22T10:02:59.315Z,15.97
2018-07-22T10:05:27.983Z,15.33
2018-07-22T10:07:56.647Z,12.73
2018-07-22T10:10:25.297Z,13.63
2018-07-22T10:12:53.957Z,12.40
2018-07-22T10:15:22.590Z,12.60
2018-07-22T10:17:51.253Z,11.83
2018-07-22T10:20:19.897Z,11.70
2018-07-22T10:22:48.581Z,17.80
2018-07-22T10:25:17.243Z,14.23
2018-07-22T10:27:45.902Z,16.03
2018-07-22T10:30:14.582Z,13.87
2018-07-22T10:32:43.238Z,10.33
2018-07-22T10:35:11.931Z,16.80
2018-07-22T10:37:40.611Z,12.13
2018-07-22T10:40:09.277Z,13.10
2018-07-22T10:42:37.957Z,10.30
2018-07-22T10:45:06.626Z,9.43
2018-07-22T10:47:35.272Z,10.17
2018-07-22T10:50:04.046Z,9.63
2018-07-22T10:52:32.714Z,9.53
2018-07-22T10:55:01.395Z,9.10
2018-07-22T10:57:30.057Z,9.87
2018-07-22T10:59:58.708Z,8.83
2018-07-22T11:02:27.426Z,11.00
2018-07-22T11:04:56.154Z,11.77
2018-07-22T11:07:24.812Z,9.60
2018-07-22T11:09:53.872Z,10.20
2018-07-22T11:12:22.563Z,14.73
2018-07-22T11:14:51.408Z,11.03
2018-07-22T11:17:19.965Z,10.57
2018-07-22T11:19:48.642Z,10.13
2018-07-22T11:22:17.274Z,10.73
2018-07-22T11:24:45.966Z,10.40
2018-07-22T11:27:14.609Z,11.27
2018-07-22T11:29:43.251Z,10.30
2018-07-22T11:32:11.929Z,11.73
2018-07-22T11:34:40.704Z,10.27
2018-07-22T11:37:09.376Z,9.60
2018-07-22T11:39:38.036Z,11.60
2018-07-22T11:42:06.742Z,10.50
2018-07-22T11:44:35.408Z,9.87
2018-07-22T11:47:04.059Z,11.97
2018-07-22T11:49:32.719Z,12.07
2018-07-22T11:52:01.357Z,18.97
2018-07-22T11:54:30.028Z,11.60
2018-07-22T11:56:58.685Z,11.13
2018-07-22T11:59:27.348Z,12.00
2018-07-22T12:01:56.060Z,11.87
2018-07-22T12:04:24.744Z,10.63
2018-07-22T12:06:53.395Z,10.50
2018-07-22T12:09:22.905Z,10.57
2018-07-22T12:11:51.549Z,9.97
2018-07-22T12:14:20.199Z,11.07
2018-07-22T12:16:48.848Z,11.90
2018-07-22T12:19:17.500Z,13.47
2018-07-22T12:21:46.143Z,13.10
2018-07-22T12:24:14.805Z,12.17
2018-07-22T12:26:43.460Z,11.03
2018-07-22T12:29:12.153Z,10.77
2018-07-22T12:31:40.828Z,13.97
2018-07-22T12:34:09.507Z,10.53
2018-07-22T12:36:38.144Z,9.73
2018-07-22T12:39:10.060Z,11.10
2018-07-22T12:41:38.717Z,10.77
2018-07-22T12:44:07.373Z,10.23
2018-07-22T12:46:36.332Z,10.90
2018-07-22T12:49:05.121Z,10.40
2018-07-22T12:51:33.896Z,11.53
2018-07-22T12:54:02.549Z,12.20
2018-07-22T12:56:31.214Z,8.90
2018-07-22T12:59:00.345Z,12.43
2018-07-22T13:01:29.387Z,13.57
2018-07-22T13:03:58.047Z,10.40
2018-07-22T13:06:26.722Z,8.80
2018-07-22T13:08:55.389Z,9.90
2018-07-22T13:11:24.056Z,11.13
2018-07-22T13:13:52.690Z,9.97
2018-07-22T13:16:21.347Z,10.33
2018-07-22T13:18:49.999Z,11.17
2018-07-22T13:21:18.680Z,10.13
2018-07-22T13:23:47.345Z,11.50
2018-07-22T13:26:16.019Z,9.33
2018-07-22T13:28:44.678Z,9.50
2018-07-22T13:31:13.339Z,9.23
2018-07-22T13:33:42.001Z,9.40
2018-07-22T13:36:10.663Z,9.43
2018-07-22T13:38:39.311Z,8.47
2018-07-22T13:41:07.970Z,9.10
2018-07-22T13:43:36.594Z,10.17
2018-07-22T13:46:05.317Z,9.80
2018-07-22T13:48:33.948Z,9.33
2018-07-22T13:51:02.636Z,8.13
2018-07-22T13:53:31.268Z,13.67
2018-07-22T13:55:59.933Z,8.37
2018-07-22T13:58:28.582Z,8.43
2018-07-22T14:00:57.253Z,8.57
2018-07-22T14:03:25.903Z,9.60
2018-07-22T14:05:54.551Z,8.10
2018-07-22T14:08:23.209Z,8.90
2018-07-22T14:10:51.862Z,10.20
2018-07-22T14:13:20.504Z,8.70
2018-07-22T14:15:49.172Z,8.40
2018-07-22T14:18:17.829Z,9.53
2018-07-22T14:20:46.481Z,9.20
2018-07-22T14:23:15.120Z,8.83
2018-07-22T14:25:43.793Z,9.13
2018-07-22T14:28:12.452Z,8.80
2018-07-22T14:30:41.166Z,10.10
2018-07-22T14:33:09.806Z,8.87
2018-07-22T14:35:38.469Z,9.40
2018-07-22T14:38:07.325Z,8.87
2018-07-22T14:40:36.015Z,8.63
2018-07-22T14:43:04.669Z,8.53
2018-07-22T14:45:33.339Z,8.07
2018-07-22T14:48:01.979Z,8.57
2018-07-22T14:50:30.630Z,10.90
2018-07-22T14:52:59.285Z,9.00
2018-07-22T14:55:27.921Z,9.13
2018-07-22T14:57:56.588Z,10.20
2018-07-22T15:00:25.293Z,10.90
2018-07-22T15:02:53.939Z,9.03
2018-07-22T15:05:22.596Z,9.23
2018-07-22T15:07:51.253Z,9.70
2018-07-22T15:10:19.984Z,9.17
2018-07-22T15:12:48.642Z,9.10
2018-07-22T15:15:17.280Z,8.70
2018-07-22T15:17:45.958Z,9.10
2018-07-22T15:20:14.596Z,9.47
2018-07-22T15:22:43.279Z,8.37
2018-07-22T15:25:11.930Z,10.07
2018-07-22T15:27:40.623Z,9.13
2018-07-22T15:30:09.302Z,11.13
2018-07-22T15:32:37.979Z,7.30
2018-07-22T15:35:06.688Z,7.37
2018-07-22T15:37:35.328Z,10.63
2018-07-22T15:40:04.245Z,7.80
2018-07-22T15:42:32.914Z,7.47
2018-07-22T15:45:01.546Z,7.47
2018-07-22T15:47:30.207Z,8.03
2018-07-22T15:49:58.838Z,7.50
2018-07-22T15:52:27.487Z,7.70
2018-07-22T15:54:56.153Z,7.37
2018-07-22T15:57:24.807Z,7.20
2018-07-22T15:59:53.439Z,6.33
2018-07-22T16:02:22.113Z,9.53
2018-07-22T16:04:50.791Z,7.00
2018-07-22T16:07:19.468Z,6.23
2018-07-22T16:09:48.101Z,6.93
2018-07-22T16:12:16.803Z,6.27
2018-07-22T16:14:45.448Z,6.23
2018-07-22T16:17:14.114Z,10.27
2018-07-22T16:19:42.764Z,6.80
2018-07-22T16:22:11.534Z,7.83
2018-07-22T16:24:40.172Z,5.87
2018-07-22T16:27:08.825Z,6.73
2018-07-22T16:29:37.542Z,5.80
2018-07-22T16:32:06.238Z,6.30
2018-07-22T16:34:34.883Z,6.63
2018-07-22T16:37:03.560Z,6.27
2018-07-22T16:39:32.217Z,6.40
2018-07-22T16:42:00.881Z,6.60
2018-07-22T16:44:29.528Z,5.97
2018-07-22T16:46:58.209Z,6.17
2018-07-22T16:49:26.842Z,6.60
2018-07-22T16:51:55.503Z,6.03
2018-07-22T16:54:24.150Z,6.40
2018-07-22T16:56:52.796Z,10.33
2018-07-22T16:59:21.460Z,6.57
2018-07-22T17:01:50.113Z,5.70
2018-07-22T17:04:18.797Z,6.90
2018-07-22T17:06:47.436Z,7.00
2018-07-22T17:09:16.083Z,6.47
2018-07-22T17:11:44.734Z,6.33
2018-07-22T17:14:13.400Z,7.43
2018-07-22T17:16:42.067Z,6.13
2018-07-22T17:19:10.733Z,8.63
2018-07-22T17:21:39.399Z,5.83
2018-07-22T17:24:08.182Z,5.73
2018-07-22T17:26:36.826Z,5.73
2018-07-22T17:29:05.534Z,6.63
2018-07-22T17:31:34.166Z,5.30
2018-07-22T17:34:02.900Z,6.50
2018-07-22T17:36:31.576Z,4.80
2018-07-22T17:39:00.251Z,4.10
2018-07-22T17:41:28.933Z,4.87
2018-07-22T17:43:57.592Z,4.40
2018-07-22T17:46:26.274Z,4.63
2018-07-22T17:48:54.937Z,4.50
2018-07-22T17:51:23.575Z,4.67
2018-07-22T17:53:52.264Z,4.90
2018-07-22T17:56:20.896Z,4.40
2018-07-22T17:58:49.574Z,4.60
2018-07-22T18:01:18.248Z,6.43
2018-07-22T18:03:46.932Z,3.77
2018-07-22T18:06:15.592Z,9.30
2018-07-22T18:08:44.240Z,4.50
2018-07-22T18:11:12.894Z,7.33
2018-07-22T18:13:41.557Z,7.83
2018-07-22T18:16:10.215Z,7.43
2018-07-22T18:18:38.875Z,4.30
2018-07-22T18:21:07.649Z,5.50
2018-07-22T18:23:36.278Z,3.97
2018-07-22T18:26:05.001Z,7.63
2018-07-22T18:28:33.668Z,4.97
2018-07-22T18:31:02.357Z,5.00
2018-07-22T18:33:31.029Z,5.00
2018-07-22T18:35:59.687Z,6.93
2018-07-22T18:38:28.348Z,4.67
2018-07-22T18:40:57.001Z,4.93
2018-07-22T18:43:25.665Z,5.10
2018-07-22T18:45:54.303Z,6.77
2018-07-22T18:48:23.063Z,6.47
2018-07-22T18:50:51.681Z,6.40
2018-07-22T18:53:20.460Z,4.50
2018-07-22T18:55:49.095Z,4.17
2018-07-22T18:58:17.732Z,5.53
2018-07-22T19:00:46.390Z,4.00
2018-07-22T19:03:15.052Z,4.37
2018-07-22T19:05:43.745Z,12.73
2018-07-22T19:08:12.383Z,4.67
2018-07-22T19:10:41.036Z,7.63
2018-07-22T19:13:09.697Z,5.10
2018-07-22T19:15:38.394Z,3.90
2018-07-22T19:18:07.107Z,5.53
2018-07-22T19:20:35.768Z,4.33
2018-07-22T19:23:04.477Z,3.93
2018-07-22T19:25:33.140Z,4.57
2018-07-22T19:28:01.762Z,4.10
2018-07-22T19:30:30.464Z,4.07
2018-07-22T19:32:59.127Z,9.70
2018-07-22T19:35:27.774Z,4.30
2018-07-22T19:37:56.446Z,4.90
2018-07-22T19:40:25.152Z,4.97
2018-07-22T19:42:53.793Z,4.20
2018-07-22T19:45:22.465Z,5.57
2018-07-22T19:47:51.084Z,3.37
2018-07-22T19:50:19.745Z,3.50
2018-07-22T19:52:48.453Z,3.77
2018-07-22T19:55:17.120Z,7.90
2018-07-22T19:57:45.784Z,3.23
2018-07-22T20:00:14.526Z,4.00
2018-07-22T20:02:43.220Z,2.90
2018-07-22T20:05:11.941Z,3.10
2018-07-22T20:07:40.597Z,3.20
2018-07-22T20:10:09.259Z,3.53
2018-07-22T20:12:37.943Z,3.63
2018-07-22T20:15:06.629Z,3.33
2018-07-22T20:17:35.291Z,3.47
2018-07-22T20:20:04.084Z,4.40
2018-07-22T20:22:32.718Z,3.20
2018-07-22T20:25:01.374Z,3.23
2018-07-22T20:27:30.020Z,4.57
2018-07-22T20:29:58.687Z,5.73
2018-07-22T20:32:27.379Z,5.80
2018-07-22T20:34:56.048Z,4.43
2018-07-22T20:37:24.934Z,3.90
2018-07-22T20:39:53.610Z,3.30
2018-07-22T20:42:22.276Z,5.70
2018-07-22T20:44:50.956Z,3.37
2018-07-22T20:47:19.703Z,4.20
2018-07-22T20:49:48.360Z,5.17
2018-07-22T20:52:17.005Z,3.50
2018-07-22T20:54:45.700Z,4.03
2018-07-22T20:57:14.337Z,5.03
2018-07-22T20:59:43.002Z,9.10
2018-07-22T21:02:11.663Z,5.33
2018-07-22T21:04:40.341Z,4.00
2018-07-22T21:07:09.040Z,7.20
2018-07-22T21:09:37.679Z,5.17
2018-07-22T21:12:43.915Z,4.97
2018-07-22T21:15:12.956Z,4.50
2018-07-22T21:17:41.715Z,4.30
2018-07-22T21:20:10.385Z,4.33
2018-07-22T21:22:39.368Z,4.43
2018-07-22T21:25:08.040Z,4.53
2018-07-22T21:27:36.701Z,6.37
2018-07-22T21:30:06.395Z,4.50
2018-07-22T21:32:35.054Z,3.90
2018-07-22T21:35:03.772Z,4.07
2018-07-22T21:37:32.404Z,5.23
2018-07-22T21:40:01.118Z,4.73
2018-07-22T21:42:30.048Z,4.20
2018-07-22T21:44:58.691Z,4.67
2018-07-22T21:47:27.351Z,4.73
2018-07-22T21:49:56.001Z,4.93
2018-07-22T21:52:24.909Z,4.37
2018-07-22T21:54:53.564Z,8.23
2018-07-22T21:57:22.287Z,5.60
2018-07-22T21:59:50.928Z,5.00
2018-07-22T22:02:19.612Z,5.23
2018-07-22T22:04:48.298Z,5.53
2018-07-22T22:07:16.991Z,4.77
2018-07-22T22:09:45.643Z,5.00
2018-07-22T22:12:14.316Z,5.20
2018-07-22T22:14:42.953Z,6.23
2018-07-22T22:17:11.666Z,7.30
2018-07-22T22:19:40.797Z,4.80
2018-07-22T22:22:09.479Z,5.60
2018-07-22T22:24:38.172Z,5.60
2018-07-22T22:27:06.827Z,5.33
2018-07-22T22:29:35.474Z,3.80
2018-07-22T22:32:04.160Z,3.97
2018-07-22T22:34:32.805Z,4.30
2018-07-22T22:37:01.471Z,4.43
2018-07-22T22:39:30.108Z,4.57
2018-07-22T22:41:58.776Z,4.00
2018-07-22T22:44:27.408Z,5.37
2018-07-22T22:46:56.076Z,6.00
2018-07-22T22:49:24.727Z,6.67
2018-07-22T22:51:53.410Z,6.03
2018-07-22T22:54:22.062Z,6.30
2018-07-22T22:56:50.754Z,7.30
2018-07-22T22:59:22.512Z,6.73
2018-07-22T23:01:51.344Z,5.80
2018-07-22T23:04:20.018Z,7.80
2018-07-22T23:06:48.684Z,7.57
2018-07-22T23:09:17.404Z,8.00
2018-07-22T23:11:46.063Z,7.50
2018-07-22T23:14:14.743Z,6.30
2018-07-22T23:16:43.417Z,16.53
2018-07-22T23:19:12.045Z,10.57
2018-07-22T23:21:40.692Z,6.90
2018-07-22T23:24:09.331Z,6.97
2018-07-22T23:26:37.983Z,7.80
2018-07-22T23:29:06.636Z,7.20
2018-07-22T23:31:35.288Z,6.97
2018-07-22T23:34:03.922Z,7.83
2018-07-22T23:36:32.593Z,7.93
2018-07-22T23:39:01.251Z,9.07
2018-07-22T23:41:29.927Z,7.60
2018-07-22T23:43:58.580Z,8.93
2018-07-22T23:46:27.222Z,9.43
2018-07-22T23:48:55.878Z,8.30
2018-07-22T23:51:24.514Z,9.37
2018-07-22T23:53:53.167Z,7.20
2018-07-22T23:56:21.802Z,12.23
2018-07-22T23:58:50.455Z,9.73
